Time;durP1;ratioP1;P1;durP2;ratioP2;P2;SDS_P1;SDS_P2;PMS_P1;PMS_P2;Temp;Humidity;BMP_temperature;BMP_pressure;BME280_temperature;BME280_humidity;BME280_pressure;Samples;Min_cycle;Max_cycle;Signal;HPM_P1;HPM_P2
2021/04/16 00:01:44;;;;;;;560.80;243.00;;;;;;;;;;5026581;28;20037;-70
2021/04/16 00:04:10;;;;;;;549.60;249.68;;;;;;;;;;5024445;28;20584;-70
2021/04/16 00:06:36;;;;;;;448.40;224.18;;;;;;;;;;5001610;28;20121;-70
2021/04/16 00:09:03;;;;;;;427.83;213.07;;;;;;;;;;5010527;28;20029;-70
2021/04/16 00:11:29;;;;;;;449.77;216.77;;;;;;;;;;5008808;28;20458;-70
2021/04/16 00:13:55;;;;;;;419.13;215.55;;;;;;;;;;5006399;28;20033;-70
2021/04/16 00:16:22;;;;;;;429.95;218.13;;;;;;;;;;5027474;28;20038;-70
2021/04/16 00:18:49;;;;;;;432.27;220.82;;;;;;;;;;5021328;28;20029;-69
2021/04/16 00:21:15;;;;;;;445.58;225.60;;;;;;;;;;5011091;28;20068;-70
2021/04/16 00:23:41;;;;;;;421.10;223.15;;;;;;;;;;5020814;28;20490;-70
2021/04/16 00:26:08;;;;;;;444.08;222.40;;;;;;;;;;5009892;28;20068;-70
2021/04/16 00:28:34;;;;;;;424.13;212.18;;;;;;;;;;5006295;28;20137;-70
2021/04/16 00:31:02;;;;;;;431.60;230.35;;;;;;;;;;5005931;28;20116;-69
2021/04/16 00:33:29;;;;;;;434.83;220.93;;;;;;;;;;5008801;28;20037;-70
2021/04/16 00:35:55;;;;;;;426.23;220.23;;;;;;;;;;5010476;28;20035;-69
2021/04/16 00:38:22;;;;;;;430.63;214.05;;;;;;;;;;5006874;28;20500;-70
2021/04/16 00:40:49;;;;;;;440.25;221.63;;;;;;;;;;5007563;28;20037;-70
2021/04/16 00:43:16;;;;;;;423.65;219.65;;;;;;;;;;5006986;28;20669;-70
2021/04/16 00:45:42;;;;;;;413.45;215.75;;;;;;;;;;5026542;28;20105;-70
2021/04/16 00:48:11;;;;;;;417.58;213.35;;;;;;;;;;5020407;28;20355;-70
2021/04/16 00:50:46;;;;;;;405.17;210.65;;;;;;;;;;5009188;28;20159;-70
2021/04/16 00:53:13;;;;;;;426.38;209.38;;;;;;;;;;5004981;28;20029;-70
2021/04/16 00:55:39;;;;;;;412.60;218.32;;;;;;;;;;5021753;28;20123;-70
2021/04/16 00:58:05;;;;;;;422.83;223.27;;;;;;;;;;5004214;28;20603;-70
2021/04/16 01:00:31;;;;;;;424.95;219.25;;;;;;;;;;5023599;28;20044;-70
2021/04/16 01:02:57;;;;;;;454.52;228.25;;;;;;;;;;5008689;28;20029;-70
2021/04/16 01:05:23;;;;;;;432.98;217.50;;;;;;;;;;5006819;28;20060;-70
2021/04/16 01:07:51;;;;;;;404.65;218.32;;;;;;;;;;5021073;28;20022;-70
2021/04/16 01:10:17;;;;;;;399.40;212.40;;;;;;;;;;5008712;28;20049;-70
2021/04/16 01:12:44;;;;;;;388.02;213.02;;;;;;;;;;5021572;28;20022;-70
2021/04/16 01:15:24;;;;;;;404.08;215.35;;;;;;;;;;5006827;28;20025;-70
2021/04/16 01:17:52;;;;;;;410.65;209.32;;;;;;;;;;5004046;28;20036;-70
2021/04/16 01:20:20;;;;;;;397.60;213.98;;;;;;;;;;5024408;28;20060;-70
2021/04/16 01:22:57;;;;;;;406.63;214.57;;;;;;;;;;5008315;28;20481;-70
2021/04/16 01:25:24;;;;;;;405.92;216.10;;;;;;;;;;5003957;28;20041;-70
2021/04/16 01:27:50;;;;;;;389.85;210.13;;;;;;;;;;5005356;28;20065;-70
2021/04/16 01:30:21;;;;;;;395.65;216.43;;;;;;;;;;5021351;28;20385;-70
2021/04/16 01:32:48;;;;;;;387.55;203.63;;;;;;;;;;5007872;28;20040;-71
2021/04/16 01:35:17;;;;;;;385.75;209.00;;;;;;;;;;5003929;28;20045;-71
2021/04/16 01:37:43;;;;;;;389.95;215.30;;;;;;;;;;5006281;28;20385;-70
2021/04/16 01:40:13;;;;;;;391.15;205.45;;;;;;;;;;5006230;28;20032;-70
2021/04/16 01:42:39;;;;;;;;;;;;;;;;;;5004454;28;20035;-70
2021/04/16 01:45:07;;;;;;;375.10;199.45;;;;;;;;;;5005493;28;20005;-70
2021/04/16 01:47:34;;;;;;;377.63;204.02;;;;;;;;;;5005971;28;20080;-71
2021/04/16 01:50:00;;;;;;;372.15;197.50;;;;;;;;;;5024340;28;20021;-71
2021/04/16 01:52:30;;;;;;;377.17;202.55;;;;;;;;;;5022807;28;20059;-71
2021/04/16 01:54:56;;;;;;;378.23;200.77;;;;;;;;;;5007051;28;20505;-71
2021/04/16 01:57:27;;;;;;;388.45;214.88;;;;;;;;;;5026450;28;20033;-71
2021/04/16 01:59:54;;;;;;;391.95;210.98;;;;;;;;;;5022540;28;20109;-72
2021/04/16 02:02:23;;;;;;;397.75;206.38;;;;;;;;;;5004444;28;20030;-71
2021/04/16 02:04:49;;;;;;;387.73;217.50;;;;;;;;;;5008738;28;20497;-71
2021/04/16 02:07:15;;;;;;;384.73;206.32;;;;;;;;;;5023212;28;20036;-71
2021/04/16 02:09:42;;;;;;;386.95;213.27;;;;;;;;;;5009946;28;20021;-71
2021/04/16 02:12:09;;;;;;;385.60;211.60;;;;;;;;;;5024132;28;20087;-71
2021/04/16 02:14:35;;;;;;;383.13;201.82;;;;;;;;;;5023219;28;20473;-72
2021/04/16 02:17:02;;;;;;;393.38;210.40;;;;;;;;;;5006692;28;20103;-71
2021/04/16 02:19:29;;;;;;;391.00;213.82;;;;;;;;;;5023453;28;20637;-71
2021/04/16 02:21:55;;;;;;;394.35;215.18;;;;;;;;;;5011557;28;20515;-71
2021/04/16 02:24:22;;;;;;;406.98;218.82;;;;;;;;;;5008710;28;21694;-71
2021/04/16 02:26:48;;;;;;;396.80;212.77;;;;;;;;;;5006303;28;20056;-72
2021/04/16 02:29:15;;;;;;;408.00;217.77;;;;;;;;;;5010509;28;20067;-71
2021/04/16 02:31:45;;;;;;;392.13;215.60;;;;;;;;;;5010550;28;20022;-71
2021/04/16 02:34:12;;;;;;;403.07;209.43;;;;;;;;;;5026928;28;20406;-71
2021/04/16 02:36:37;;;;;;;398.52;213.15;;;;;;;;;;5008578;28;20120;-72
2021/04/16 02:39:05;;;;;;;388.77;206.45;;;;;;;;;;5026121;28;20548;-71
2021/04/16 02:41:30;;;;;;;393.77;213.07;;;;;;;;;;5012082;28;20377;-72
2021/04/16 02:43:56;;;;;;;398.55;219.52;;;;;;;;;;5012715;28;20030;-71
2021/04/16 02:46:24;;;;;;;386.98;201.52;;;;;;;;;;5008901;28;20524;-72
2021/04/16 02:48:50;;;;;;;384.10;207.75;;;;;;;;;;5024087;28;20466;-71
2021/04/16 02:51:16;;;;;;;378.23;197.48;;;;;;;;;;5011229;28;20045;-72
2021/04/16 02:53:42;;;;;;;398.20;206.20;;;;;;;;;;5010831;28;20397;-72
2021/04/16 02:56:08;;;;;;;401.90;213.95;;;;;;;;;;5026754;28;20026;-73
2021/04/16 02:58:34;;;;;;;404.02;216.68;;;;;;;;;;5007749;28;20303;-71
2021/04/16 03:01:00;;;;;;;394.27;207.25;;;;;;;;;;5010124;28;20026;-72
2021/04/16 03:03:26;;;;;;;402.90;208.32;;;;;;;;;;5010067;28;20496;-72
2021/04/16 03:05:52;;;;;;;399.67;206.65;;;;;;;;;;5023552;28;20037;-72
2021/04/16 03:08:19;;;;;;;404.15;207.25;;;;;;;;;;5008136;28;20033;-72
2021/04/16 03:10:45;;;;;;;421.67;208.90;;;;;;;;;;5004013;28;20022;-72
2021/04/16 03:13:11;;;;;;;407.98;201.75;;;;;;;;;;5009975;28;20040;-72
2021/04/16 03:15:38;;;;;;;386.75;208.23;;;;;;;;;;5009621;28;20377;-72
2021/04/16 03:18:04;;;;;;;383.48;205.38;;;;;;;;;;5007314;28;20585;-72
2021/04/16 03:20:30;;;;;;;379.25;195.13;;;;;;;;;;5008245;28;20784;-72
2021/04/16 03:22:56;;;;;;;383.42;216.30;;;;;;;;;;5010398;28;20032;-72
2021/04/16 03:25:22;;;;;;;393.13;215.50;;;;;;;;;;5022651;28;20037;-72
2021/04/16 03:27:48;;;;;;;377.85;200.52;;;;;;;;;;5025506;28;20030;-72
2021/04/16 03:30:16;;;;;;;388.80;203.80;;;;;;;;;;5007956;28;20036;-72
2021/04/16 03:32:42;;;;;;;385.98;209.48;;;;;;;;;;5025425;28;20374;-72
2021/04/16 03:35:08;;;;;;;382.95;215.63;;;;;;;;;;5009216;28;20042;-72
2021/04/16 03:37:34;;;;;;;379.67;203.15;;;;;;;;;;5010835;28;20500;-72
2021/04/16 03:40:00;;;;;;;378.55;203.93;;;;;;;;;;5009736;28;20553;-72
2021/04/16 03:42:26;;;;;;;383.33;206.95;;;;;;;;;;5023931;28;20091;-72
2021/04/16 03:44:52;;;;;;;383.38;202.45;;;;;;;;;;5008587;28;20042;-73
2021/04/16 03:47:18;;;;;;;383.75;210.95;;;;;;;;;;5023306;28;20478;-73
2021/04/16 03:49:45;;;;;;;381.65;210.27;;;;;;;;;;5024922;28;20033;-73
2021/04/16 03:52:11;;;;;;;380.23;202.82;;;;;;;;;;5006929;28;20049;-71
2021/04/16 03:54:37;;;;;;;379.77;208.35;;;;;;;;;;5020795;28;20042;-71
2021/04/16 03:57:05;;;;;;;377.85;203.20;;;;;;;;;;5005932;28;20116;-73
2021/04/16 03:59:31;;;;;;;380.85;207.65;;;;;;;;;;5023947;28;20025;-73
2021/04/16 04:01:57;;;;;;;371.95;196.98;;;;;;;;;;5004154;28;20080;-73
2021/04/16 04:04:23;;;;;;;380.65;203.13;;;;;;;;;;5007959;28;20041;-73
2021/04/16 04:06:50;;;;;;;380.67;206.52;;;;;;;;;;5009089;28;20021;-73
2021/04/16 04:09:16;;;;;;;374.05;201.00;;;;;;;;;;5010932;28;20794;-71
2021/04/16 04:11:43;;;;;;;378.80;209.55;;;;;;;;;;5008833;28;20036;-71
2021/04/16 04:14:09;;;;;;;371.98;195.30;;;;;;;;;;5027690;28;20092;-71
2021/04/16 04:16:55;;;;;;;369.15;200.75;;;;;;;;;;5026890;28;20630;-71
2021/04/16 04:19:22;;;;;;;369.48;198.45;;;;;;;;;;5006527;28;20025;-71
2021/04/16 04:21:48;;;;;;;369.80;199.65;;;;;;;;;;5003437;28;20779;-72
2021/04/16 04:24:16;;;;;;;371.08;202.23;;;;;;;;;;5001862;28;20034;-73
2021/04/16 04:26:42;;;;;;;373.05;203.60;;;;;;;;;;5000254;28;20029;-73
2021/04/16 04:29:09;;;;;;;372.77;200.80;;;;;;;;;;5013635;28;20022;-74
2021/04/16 04:31:36;;;;;;;376.10;199.25;;;;;;;;;;4997158;28;20041;-74
2021/04/16 04:34:02;;;;;;;375.90;202.48;;;;;;;;;;5002457;28;20057;-73
2021/04/16 04:36:27;;;;;;;373.85;208.63;;;;;;;;;;5018742;28;20622;-74
2021/04/16 04:38:53;;;;;;;373.98;208.77;;;;;;;;;;5014499;28;20034;-74
2021/04/16 04:41:19;;;;;;;376.85;205.48;;;;;;;;;;5000693;28;20093;-74
2021/04/16 04:43:46;;;;;;;374.95;206.43;;;;;;;;;;5017384;28;20481;-74
2021/04/16 04:46:12;;;;;;;372.33;200.18;;;;;;;;;;5003845;28;20030;-74
2021/04/16 04:48:38;;;;;;;376.98;201.63;;;;;;;;;;4995777;28;20030;-74
2021/04/16 04:51:04;;;;;;;374.88;203.95;;;;;;;;;;5025622;28;20356;-73
2021/04/16 04:53:30;;;;;;;381.17;203.48;;;;;;;;;;5005340;28;20034;-73
2021/04/16 04:55:56;;;;;;;375.33;202.60;;;;;;;;;;5007775;28;20026;-74
2021/04/16 04:58:22;;;;;;;376.83;202.88;;;;;;;;;;5015469;28;20075;-75
2021/04/16 05:00:48;;;;;;;370.25;191.20;;;;;;;;;;5017307;28;20381;-74
2021/04/16 05:03:14;;;;;;;370.83;196.32;;;;;;;;;;4996801;28;20025;-74
2021/04/16 05:05:40;;;;;;;386.38;208.55;;;;;;;;;;5006165;28;20037;-74
2021/04/16 05:08:06;;;;;;;380.42;200.55;;;;;;;;;;5022365;28;20168;-73
2021/04/16 05:10:32;;;;;;;394.27;210.50;;;;;;;;;;5018943;28;20056;-74
2021/04/16 05:12:58;;;;;;;399.27;201.82;;;;;;;;;;5022108;28;20098;-74
2021/04/16 05:15:24;;;;;;;393.65;210.93;;;;;;;;;;5022187;28;20037;-72
2021/04/16 05:17:50;;;;;;;405.10;217.30;;;;;;;;;;5001844;28;20030;-71
2021/04/16 05:20:16;;;;;;;424.55;204.25;;;;;;;;;;5010487;28;20125;-72
2021/04/16 05:22:42;;;;;;;410.48;202.27;;;;;;;;;;5026247;28;20064;-71
2021/04/16 05:25:09;;;;;;;409.55;202.25;;;;;;;;;;4996364;28;20068;-72
2021/04/16 05:27:35;;;;;;;417.75;212.23;;;;;;;;;;5014433;28;20068;-71
2021/04/16 05:30:01;;;;;;;403.48;213.57;;;;;;;;;;5005780;28;20030;-71
2021/04/16 05:32:27;;;;;;;447.63;219.20;;;;;;;;;;4999627;28;20799;-71
2021/04/16 05:34:53;;;;;;;417.42;202.52;;;;;;;;;;5012698;28;20040;-71
2021/04/16 05:37:19;;;;;;;410.15;209.40;;;;;;;;;;5003715;28;20037;-71
2021/04/16 05:39:45;;;;;;;412.63;207.27;;;;;;;;;;5008865;28;20033;-71
2021/04/16 05:42:11;;;;;;;416.02;204.73;;;;;;;;;;5015864;28;20073;-71
2021/04/16 05:44:37;;;;;;;413.13;206.93;;;;;;;;;;5013203;28;20030;-71
2021/04/16 05:47:04;;;;;;;407.13;216.55;;;;;;;;;;5011903;28;20471;-71
2021/04/16 05:49:31;;;;;;;408.88;212.25;;;;;;;;;;5015295;28;20062;-70
2021/04/16 05:51:58;;;;;;;407.08;220.70;;;;;;;;;;5021052;28;20050;-71
2021/04/16 05:54:24;;;;;;;404.48;218.23;;;;;;;;;;5016987;28;20041;-71
2021/04/16 05:56:50;;;;;;;402.70;217.90;;;;;;;;;;5003813;28;20038;-70
2021/04/16 05:59:16;;;;;;;406.85;219.93;;;;;;;;;;5026006;28;20041;-71
2021/04/16 06:01:43;;;;;;;412.52;219.10;;;;;;;;;;5008639;28;20056;-70
2021/04/16 06:04:15;;;;;;;412.05;217.10;;;;;;;;;;5005871;28;20025;-70
2021/04/16 06:06:41;;;;;;;414.55;220.85;;;;;;;;;;5012433;28;20033;-70
2021/04/16 06:12:12;;;;;;;426.67;210.85;;;;;;;;;;5019207;28;20036;-70
2021/04/16 06:14:38;;;;;;;427.98;224.50;;;;;;;;;;5027151;28;20045;-70
2021/04/16 06:17:04;;;;;;;429.70;226.10;;;;;;;;;;5006569;28;20056;-70
2021/04/16 06:19:30;;;;;;;428.95;229.40;;;;;;;;;;5008249;28;20032;-70
2021/04/16 06:21:56;;;;;;;449.00;231.65;;;;;;;;;;5007476;28;20124;-70
2021/04/16 06:24:21;;;;;;;616.78;264.02;;;;;;;;;;5019414;28;20041;-70
2021/04/16 06:26:47;;;;;;;446.08;224.07;;;;;;;;;;4995834;28;20033;-70
2021/04/16 06:29:13;;;;;;;441.73;223.63;;;;;;;;;;5018817;28;20512;-71
2021/04/16 06:31:39;;;;;;;437.08;225.95;;;;;;;;;;5004846;28;20063;-71
2021/04/16 06:34:05;;;;;;;420.25;226.82;;;;;;;;;;5000817;28;20025;-71
2021/04/16 06:36:31;;;;;;;405.77;226.65;;;;;;;;;;5003589;28;20049;-71
2021/04/16 06:38:57;;;;;;;407.00;220.50;;;;;;;;;;5006258;28;20495;-71
2021/04/16 06:41:25;;;;;;;399.25;224.10;;;;;;;;;;5009716;28;20038;-71
2021/04/16 06:44:01;;;;;;;394.60;218.20;;;;;;;;;;5018474;28;20065;-71
2021/04/16 06:46:29;;;;;;;416.05;233.70;;;;;;;;;;5019052;28;20374;-72
2021/04/16 06:49:05;;;;;;;404.90;236.52;;;;;;;;;;5016573;28;20029;-72
2021/04/16 06:51:33;;;;;;;404.30;236.77;;;;;;;;;;5022800;28;20049;-72
2021/04/16 06:54:01;;;;;;;400.75;224.70;;;;;;;;;;5007313;28;20394;-72
2021/04/16 06:56:39;;;;;;;406.90;234.48;;;;;;;;;;5013412;28;20033;-72
2021/04/16 06:59:11;;;;;;;403.85;231.30;;;;;;;;;;4999421;28;20441;-72
2021/04/16 07:01:50;;;;;;;418.88;238.68;;;;;;;;;;5002099;28;20029;-72
2021/04/16 07:04:22;;;;;;;425.27;246.32;;;;;;;;;;5024160;28;20075;-70
2021/04/16 07:06:51;;;;;;;439.13;253.55;;;;;;;;;;5022857;28;20033;-70
2021/04/16 07:09:35;;;;;;;509.42;270.15;;;;;;;;;;5019337;28;20360;-72
2021/04/16 07:12:04;;;;;;;439.27;240.55;;;;;;;;;;5009725;28;20109;-71
2021/04/16 07:14:37;;;;;;;461.40;258.17;;;;;;;;;;5029861;28;20541;-71
2021/04/16 07:17:04;;;;;;;490.02;267.23;;;;;;;;;;5002970;28;20029;-72
2021/04/16 07:19:30;;;;;;;477.95;262.50;;;;;;;;;;5013945;28;20025;-72
2021/04/16 07:21:57;;;;;;;459.42;265.05;;;;;;;;;;5009121;28;20401;-72
2021/04/16 07:24:23;;;;;;;463.50;266.35;;;;;;;;;;5027258;28;20492;-72
2021/04/16 07:26:51;;;;;;;462.33;276.10;;;;;;;;;;5029658;28;20029;-72
2021/04/16 07:29:56;;;;;;;464.90;271.73;;;;;;;;;;5022423;28;20084;-72
2021/04/16 07:32:29;;;;;;;468.67;280.05;;;;;;;;;;4948825;29;20070;-73
2021/04/16 07:34:59;;;;;;;466.45;273.98;;;;;;;;;;4951142;29;20060;-73
2021/04/16 07:37:45;;;;;;;486.40;292.75;;;;;;;;;;4986309;28;20037;-74
2021/04/16 07:40:31;;;;;;;526.13;305.67;;;;;;;;;;5004442;28;20037;-73
2021/04/16 07:42:57;;;;;;;522.03;312.83;;;;;;;;;;5025211;28;20480;-74
2021/04/16 07:45:26;;;;;;;521.03;318.42;;;;;;;;;;5019874;28;20092;-73
2021/04/16 07:47:53;;;;;;;546.60;352.40;;;;;;;;;;5016224;28;20112;-73
2021/04/16 07:53:44;;;;;;;490.67;314.05;;;;;;;;;;5025631;28;20052;-73
2021/04/16 07:56:12;;;;;;;490.58;323.45;;;;;;;;;;5025086;28;20029;-75
2021/04/16 07:58:40;;;;;;;484.55;321.75;;;;;;;;;;4998999;28;20382;-74
2021/04/16 08:01:17;;;;;;;493.08;333.60;;;;;;;;;;5022328;28;20029;-73
2021/04/16 08:03:50;;;;;;;505.40;347.42;;;;;;;;;;5021624;28;20421;-72
2021/04/16 08:06:24;;;;;;;514.83;362.10;;;;;;;;;;5002938;28;20021;-72
2021/04/16 08:08:50;;;;;;;546.35;390.40;;;;;;;;;;5030502;28;20018;-73
2021/04/16 08:14:25;;;;;;;537.08;385.75;;;;;;;;;;5032341;28;20032;-73
2021/04/16 08:16:58;;;;;;;567.05;408.20;;;;;;;;;;5018847;28;20046;-72
2021/04/16 08:19:26;;;;;;;566.40;414.48;;;;;;;;;;5029304;28;20042;-73
2021/04/16 08:25:01;;;;;;;583.72;434.85;;;;;;;;;;5030166;28;20696;-73
2021/04/16 08:27:33;;;;;;;618.13;469.40;;;;;;;;;;5001138;28;20117;-73
2021/04/16 08:30:02;;;;;;;576.40;427.92;;;;;;;;;;5014758;28;20490;-72
2021/04/16 08:32:31;;;;;;;535.85;398.42;;;;;;;;;;5012913;28;20055;-73
2021/04/16 08:35:04;;;;;;;523.75;384.02;;;;;;;;;;5024754;28;20061;-72
2021/04/16 08:37:37;;;;;;;514.97;375.40;;;;;;;;;;5004639;28;20485;-71
2021/04/16 08:40:06;;;;;;;549.25;401.38;;;;;;;;;;5010132;28;20025;-72
2021/04/16 08:42:33;;;;;;;539.65;397.58;;;;;;;;;;4999979;28;20029;-72
2021/04/16 08:45:03;;;;;;;554.45;413.65;;;;;;;;;;5017726;28;20064;-72
2021/04/16 08:47:29;;;;;;;528.72;404.20;;;;;;;;;;5025686;28;20021;-72
2021/04/16 08:49:56;;;;;;;526.97;404.73;;;;;;;;;;5007411;28;20029;-75
2021/04/16 08:52:30;;;;;;;528.25;409.02;;;;;;;;;;5001887;28;20733;-72
2021/04/16 08:55:08;;;;;;;566.65;450.40;;;;;;;;;;5014641;28;20040;-72
2021/04/16 08:57:51;;;;;;;537.28;436.10;;;;;;;;;;5004299;28;20086;-73
2021/04/16 09:00:24;;;;;;;606.90;504.63;;;;;;;;;;5027153;28;20091;-72
2021/04/16 09:02:52;;;;;;;594.50;505.33;;;;;;;;;;5005340;28;20033;-72
2021/04/16 09:05:25;;;;;;;622.95;542.67;;;;;;;;;;4997468;28;20030;-73
2021/04/16 09:08:09;;;;;;;628.25;556.67;;;;;;;;;;5035850;28;20036;-74
2021/04/16 09:10:38;;;;;;;624.47;549.58;;;;;;;;;;5004277;28;20775;-72
2021/04/16 09:13:06;;;;;;;571.88;499.83;;;;;;;;;;5009594;28;20018;-71
2021/04/16 09:15:35;;;;;;;615.53;544.35;;;;;;;;;;5012093;28;20088;-70
2021/04/16 09:18:01;;;;;;;512.72;444.40;;;;;;;;;;5023126;28;20129;-71
2021/04/16 09:20:33;;;;;;;603.03;533.72;;;;;;;;;;5028908;28;20167;-72
2021/04/16 09:23:00;;;;;;;625.67;556.80;;;;;;;;;;4996483;28;20501;-71
2021/04/16 09:25:32;;;;;;;622.42;552.50;;;;;;;;;;5033078;28;20029;-73
2021/04/16 09:28:17;;;;;;;563.20;501.00;;;;;;;;;;5002097;28;20450;-72
2021/04/16 09:30:43;;;;;;;662.25;590.17;;;;;;;;;;5009556;28;20049;-70
2021/04/16 09:33:17;;;;;;;665.55;593.75;;;;;;;;;;4998144;28;20025;-71
2021/04/16 09:35:49;;;;;;;544.83;484.80;;;;;;;;;;5015537;28;20110;-71
2021/04/16 09:38:24;;;;;;;513.58;452.65;;;;;;;;;;5015143;28;20034;-72
2021/04/16 09:41:08;;;;;;;657.55;586.13;;;;;;;;;;5009446;28;20032;-71
2021/04/16 09:43:35;;;;;;;540.28;477.33;;;;;;;;;;5010881;28;20049;-71
2021/04/16 09:46:01;;;;;;;643.03;572.85;;;;;;;;;;5011130;28;20465;-72
2021/04/16 09:48:47;;;;;;;526.55;467.30;;;;;;;;;;5019310;28;20711;-72
2021/04/16 09:51:19;;;;;;;643.05;574.05;;;;;;;;;;5009103;28;20036;-72
2021/04/16 09:54:05;;;;;;;552.55;493.02;;;;;;;;;;5009894;28;20057;-73
2021/04/16 09:56:31;;;;;;;559.63;500.23;;;;;;;;;;5049916;28;20061;-71
2021/04/16 09:58:59;;;;;;;574.97;515.28;;;;;;;;;;5050026;28;20114;-72
2021/04/16 10:01:27;;;;;;;591.83;531.00;;;;;;;;;;5022263;28;20400;-74
2021/04/16 10:03:59;;;;;;;729.97;657.20;;;;;;;;;;5007024;28;20663;-71
2021/04/16 10:06:28;;;;;;;648.85;582.72;;;;;;;;;;5027726;28;20052;-74
2021/04/16 10:09:12;;;;;;;565.63;507.85;;;;;;;;;;5012878;28;20095;-72
2021/04/16 10:11:46;;;;;;;556.10;499.40;;;;;;;;;;5017145;28;20034;-75
2021/04/16 10:14:13;;;;;;;556.95;500.50;;;;;;;;;;5022423;28;20102;-72
2021/04/16 10:16:39;;;;;;;629.25;566.50;;;;;;;;;;5030109;28;20627;-74
2021/04/16 10:19:19;;;;;;;583.60;524.97;;;;;;;;;;5007614;28;20661;-72
2021/04/16 10:21:45;;;;;;;605.72;545.58;;;;;;;;;;4995440;28;20117;-72
2021/04/16 10:42:32;;;;;;;682.33;619.40;;;;;;;;;;5013974;28;20041;-73
2021/04/16 10:56:10;;;;;;;690.30;627.42;;;;;;;;;;5026986;28;20072;-74
2021/04/16 12:39:21;;;;;;;567.08;510.92;;;;;;;;;;4961407;28;20046;-73
2021/04/16 12:41:52;;;;;;;557.05;501.10;;;;;;;;;;5010681;23;20541;-72
2021/04/16 12:44:37;;;;;;;526.28;472.58;;;;;;;;;;4989888;28;20117;-73
2021/04/16 12:47:07;;;;;;;577.45;516.90;;;;;;;;;;4993827;28;20113;-76
2021/04/16 12:49:33;;;;;;;567.80;506.70;;;;;;;;;;5010063;28;20026;-76
2021/04/16 12:52:08;;;;;;;550.78;490.08;;;;;;;;;;5001034;28;20021;-80
2021/04/16 12:54:38;;;;;;;543.45;471.15;;;;;;;;;;4995223;28;20107;-76
2021/04/16 12:57:05;;;;;;;539.70;459.92;;;;;;;;;;5012540;28;20619;-76
2021/04/16 12:59:32;;;;;;;538.55;452.52;;;;;;;;;;5013208;28;20034;-77
2021/04/16 13:01:58;;;;;;;522.80;434.17;;;;;;;;;;4997830;28;20053;-76
2021/04/16 13:04:26;;;;;;;517.15;427.27;;;;;;;;;;5008737;28;20097;-73
2021/04/16 13:06:53;;;;;;;515.85;420.08;;;;;;;;;;4983500;28;20721;-75
2021/04/16 13:09:20;;;;;;;521.83;420.40;;;;;;;;;;4994349;28;20018;-77
2021/04/16 13:11:50;;;;;;;544.13;435.95;;;;;;;;;;4993841;28;20075;-76
2021/04/16 13:14:16;;;;;;;546.15;439.15;;;;;;;;;;4994798;28;20080;-75
2021/04/16 13:16:42;;;;;;;535.20;430.40;;;;;;;;;;4996563;28;20454;-76
2021/04/16 13:19:09;;;;;;;539.40;426.75;;;;;;;;;;4997569;28;20084;-73
2021/04/16 13:21:55;;;;;;;546.30;430.52;;;;;;;;;;4995895;28;20031;-75
2021/04/16 13:24:21;;;;;;;539.65;422.85;;;;;;;;;;4999526;28;20101;-77
2021/04/16 13:26:47;;;;;;;538.85;423.33;;;;;;;;;;4987529;28;20022;-75
2021/04/16 13:29:15;;;;;;;539.25;430.30;;;;;;;;;;5011179;28;20021;-76
2021/04/16 13:31:41;;;;;;;506.90;420.55;;;;;;;;;;5011470;28;20041;-76
2021/04/16 13:34:07;;;;;;;474.63;416.10;;;;;;;;;;4986984;28;20736;-78
2021/04/16 13:36:34;;;;;;;494.02;440.50;;;;;;;;;;4992200;28;20053;-76
2021/04/16 13:39:00;;;;;;;505.55;452.38;;;;;;;;;;5003543;28;20065;-78
2021/04/16 13:41:27;;;;;;;509.02;455.70;;;;;;;;;;5010254;28;20046;-76
2021/04/16 13:43:54;;;;;;;511.75;458.83;;;;;;;;;;5003859;28;20477;-74
2021/04/16 13:46:24;;;;;;;516.13;463.23;;;;;;;;;;4984136;28;20029;-77
2021/04/16 13:48:50;;;;;;;527.08;473.83;;;;;;;;;;4994433;28;20065;-76
2021/04/16 13:51:18;;;;;;;529.97;476.90;;;;;;;;;;5008515;28;20049;-77
2021/04/16 13:53:44;;;;;;;514.10;461.35;;;;;;;;;;4984133;28;20407;-76
2021/04/16 13:56:10;;;;;;;509.52;456.38;;;;;;;;;;4995489;28;20106;-75
2021/04/16 13:58:36;;;;;;;491.55;439.05;;;;;;;;;;4983951;28;20038;-76
2021/04/16 14:01:07;;;;;;;487.95;435.25;;;;;;;;;;5005600;28;20022;-75
2021/04/16 14:03:38;;;;;;;497.25;443.25;;;;;;;;;;4994988;28;20057;-73
2021/04/16 14:06:15;;;;;;;501.70;447.27;;;;;;;;;;4997976;28;20486;-76
2021/04/16 14:08:44;;;;;;;490.60;437.00;;;;;;;;;;4996787;28;20026;-76
2021/04/16 14:11:11;;;;;;;501.33;446.80;;;;;;;;;;5013629;28;20022;-77
2021/04/16 14:13:37;;;;;;;488.65;435.90;;;;;;;;;;5014878;28;20567;-75
2021/04/16 14:16:05;;;;;;;483.50;430.58;;;;;;;;;;4984992;28;20738;-75
2021/04/16 14:18:43;;;;;;;501.05;446.35;;;;;;;;;;5010795;28;20477;-76
2021/04/16 14:21:14;;;;;;;499.92;445.98;;;;;;;;;;4990923;28;20026;-77
2021/04/16 14:23:40;;;;;;;504.67;451.13;;;;;;;;;;5001258;28;20026;-77
2021/04/16 14:26:09;;;;;;;524.10;469.27;;;;;;;;;;4980359;28;20037;-75
2021/04/16 14:28:34;;;;;;;503.70;450.73;;;;;;;;;;4987119;28;20022;-76
2021/04/16 14:31:01;;;;;;;503.73;450.15;;;;;;;;;;5005583;28;20032;-76
2021/04/16 14:33:28;;;;;;;490.73;437.60;;;;;;;;;;4998068;28;20026;-77
2021/04/16 14:35:54;;;;;;;483.58;430.20;;;;;;;;;;4992720;28;20029;-75
2021/04/16 14:38:20;;;;;;;472.55;419.05;;;;;;;;;;4993135;28;20056;-75
2021/04/16 14:40:46;;;;;;;468.15;411.25;;;;;;;;;;5004716;28;20065;-75
2021/04/16 14:43:13;;;;;;;472.42;415.05;;;;;;;;;;4998988;28;20562;-76
2021/04/16 14:45:45;;;;;;;475.33;419.52;;;;;;;;;;5000545;28;20771;-76
2021/04/16 14:48:12;;;;;;;469.95;418.08;;;;;;;;;;5010468;28;20105;-78
2021/04/16 14:50:38;;;;;;;483.13;430.40;;;;;;;;;;5013941;28;20022;-76
2021/04/16 14:53:06;;;;;;;480.60;428.08;;;;;;;;;;4995038;28;20041;-74
2021/04/16 14:55:35;;;;;;;471.67;419.52;;;;;;;;;;4996717;28;20401;-77
2021/04/16 14:58:01;;;;;;;457.75;405.10;;;;;;;;;;4991420;28;20033;-76
2021/04/16 15:00:29;;;;;;;462.67;402.42;;;;;;;;;;4996817;28;20064;-76
2021/04/16 15:02:55;;;;;;;464.77;397.83;;;;;;;;;;4995144;28;20053;-76
2021/04/16 15:05:23;;;;;;;467.65;393.55;;;;;;;;;;5014915;28;20026;-76
2021/04/16 15:07:58;;;;;;;469.25;399.98;;;;;;;;;;4992855;28;20026;-77
2021/04/16 15:10:29;;;;;;;461.58;394.00;;;;;;;;;;4994824;28;20477;-77
2021/04/16 15:12:55;;;;;;;465.80;397.08;;;;;;;;;;5012278;28;20022;-77
2021/04/16 15:15:41;;;;;;;459.35;388.95;;;;;;;;;;4996529;28;20730;-76
2021/04/16 15:18:08;;;;;;;469.58;383.70;;;;;;;;;;4986775;28;20033;-77
2021/04/16 15:20:34;;;;;;;448.65;366.17;;;;;;;;;;4989235;28;20125;-76
2021/04/16 15:23:01;;;;;;;453.33;362.02;;;;;;;;;;5016051;28;20429;-74
2021/04/16 15:25:28;;;;;;;448.73;345.75;;;;;;;;;;4999739;28;20031;-76
2021/04/16 15:28:05;;;;;;;467.50;364.02;;;;;;;;;;5010479;28;20053;-76
2021/04/16 15:30:32;;;;;;;445.17;343.40;;;;;;;;;;4988715;28;20034;-76
2021/04/16 15:33:00;;;;;;;460.27;352.90;;;;;;;;;;4993097;28;20117;-75
2021/04/16 15:46:44;;;;;;;463.45;353.02;;;;;;;;;;5014574;28;20099;-75
2021/04/16 15:49:10;;;;;;;456.50;348.75;;;;;;;;;;4995112;28;20022;-76
2021/04/16 15:51:36;;;;;;;464.63;353.98;;;;;;;;;;4996421;28;20029;-76
2021/04/16 15:54:03;;;;;;;440.73;347.38;;;;;;;;;;4977266;28;20081;-75
2021/04/16 15:56:31;;;;;;;433.25;345.83;;;;;;;;;;5009498;28;20092;-76
2021/04/16 15:59:00;;;;;;;407.80;327.02;;;;;;;;;;5012739;28;20034;-76
2021/04/16 16:01:58;;;;;;;441.08;339.38;;;;;;;;;;4992258;28;20029;-77
2021/04/16 16:04:24;;;;;;;409.38;321.77;;;;;;;;;;4991122;28;20040;-76
2021/04/16 16:06:50;;;;;;;429.38;331.77;;;;;;;;;;4997919;28;20101;-76
2021/04/16 16:09:16;;;;;;;436.80;333.50;;;;;;;;;;4994177;28;20468;-76
2021/04/16 16:11:43;;;;;;;424.83;330.25;;;;;;;;;;5006550;28;20049;-75
2021/04/16 16:14:12;;;;;;;463.55;338.33;;;;;;;;;;4989218;28;20031;-75
2021/04/16 16:16:40;;;;;;;462.65;342.48;;;;;;;;;;4987127;28;20041;-76
2021/04/16 16:19:06;;;;;;;410.90;314.15;;;;;;;;;;4995419;28;20033;-76
2021/04/16 16:21:32;;;;;;;403.73;310.05;;;;;;;;;;5009559;28;20036;-75
2021/04/16 16:23:58;;;;;;;406.05;311.95;;;;;;;;;;5008090;28;20026;-76
2021/04/16 16:26:41;;;;;;;412.70;320.65;;;;;;;;;;4996856;28;20045;-75
2021/04/16 16:29:24;;;;;;;401.40;317.13;;;;;;;;;;4985375;28;20037;-76
2021/04/16 16:31:51;;;;;;;394.90;310.80;;;;;;;;;;5009568;28;20049;-76
2021/04/16 16:34:18;;;;;;;393.17;309.13;;;;;;;;;;5007324;28;20092;-75
2021/04/16 16:36:44;;;;;;;392.02;312.67;;;;;;;;;;4994701;28;20033;-76